Terminal Aerodrome Forecast
Issued by NWS Denver/Boulder, CO

Home | Current Version | Previous Version | Text Only | Print | Product List | Glossary On
Versions: 1 2 3 4 5 6 7 8 9 10 11 12 13 14 15 16 17 18 19 20 21 22 23 24 25 26 27 28 29 30 31 32 33 34 35 36 37 38 39 40 41 42 43 44 45 46 47 48 49 50
000
FTUS45 KBOU 230048 AAB
TAFDEN
TAF AMD
KDEN 230048Z 2301/2406 VRB05G15KT P6SM VCTS SCT080CB BKN120
     FM230115 30010KT P6SM SCT080 BKN120
     FM230400 22010KT P6SM FEW120 SCT200
     FM231200 23008KT P6SM FEW120 SCT200
     FM231900 30010KT P6SM FEW090 SCT140
     FM240100 VRB05KT P6SM FEW090 SCT140
     FM240300 21010KT P6SM FEW140=

USA.gov is the U.S. government's official web portal to all federal, state and local government web resources and services.